This is the latest recevied weather packets stored in our database for station/object NK0Z-13. If no packets are shown the sender has not sent any weather packets the latest 10 day(s).
| Time | Temp. | Humidity | Pressure | Rain* | Wind** | Luminosity | Snow |
|---|---|---|---|---|---|---|---|
| 1777049726 | 17.22° C | 58% | 1013.5 hPa | 0 mm | - | 705 W/m² | - |
| 1777049120 | 17.78° C | 56% | 1013.1 hPa | 0 mm | - | 691 W/m² | - |
| 1777048518 | 17.22° C | 57% | 1013.2 hPa | 0 mm | - | 674 W/m² | - |
| 1777047913 | 17.22° C | 56% | 1013 hPa | 0 mm | - | 658 W/m² | - |
| 1777047310 | 16.67° C | 59% | 1012.9 hPa | 0 mm | - | 637 W/m² | - |
| 1777046709 | 16.67° C | 58% | 1012.7 hPa | 0 mm | - | 617 W/m² | - |
| 1777046106 | 16.11° C | 58% | 1012.9 hPa | 0 mm | - | 594 W/m² | - |
| 1777045505 | 16.11° C | 59% | 1012.9 hPa | 0 mm | - | 569 W/m² | - |
| 1777044902 | 16.11° C | 58% | 1012.5 hPa | 0 mm | - | 543 W/m² | - |
| 1777044300 | 15.56° C | 59% | 1012.5 hPa | 0 mm | - | 519 W/m² | - |
| 1777043698 | 15.56° C | 59% | 1012.5 hPa | 0 mm | - | 495 W/m² | - |
| 1777043096 | 14.44° C | 60% | 1012.6 hPa | 0 mm | - | 472 W/m² | - |
| 1777042493 | 14.44° C | 60% | 1012.3 hPa | 0 mm | - | 444 W/m² | - |
| 1777041892 | 14.44° C | 58% | 1012.4 hPa | 0 mm | - | 420 W/m² | - |
| 1777041290 | 13.89° C | 60% | 1012.3 hPa | 0 mm | - | 392 W/m² | - |
| 1777040689 | 13.89° C | 60% | 1012.2 hPa | 0 mm | - | 362 W/m² | - |
| 1777040090 | 13.33° C | 62% | 1012.3 hPa | 0 mm | - | 336 W/m² | - |
| 1777039487 | 12.78° C | 64% | 1012.1 hPa | 0 mm | - | 309 W/m² | - |
| 1777038887 | 12.22° C | 64% | 1012.3 hPa | 0 mm | - | 283 W/m² | - |
| 1777038284 | 11.67° C | 65% | 1011.7 hPa | 0 mm | - | 246 W/m² | - |
| 1777037681 | 11.67° C | 65% | 1011.8 hPa | 0 mm | - | 213 W/m² | - |
| 1777037080 | 11.11° C | 67% | 1011.8 hPa | 0 mm | - | 179 W/m² | - |
| 1777036478 | 11.11° C | 67% | 1011.4 hPa | 0 mm | - | 149 W/m² | - |
| 1777035875 | 10.56° C | 69% | 1011.1 hPa | 0 mm | - | 124 W/m² | - |
| 1777035271 | 10.56° C | 69% | 1011.4 hPa | 0 mm | - | 100 W/m² | - |
* Rain latest hour (hover to see other rain measurements)
** Current wind speed in m/s (hover to see current wind gust speed)